Time;durP1;ratioP1;P1;durP2;ratioP2;P2;SDS_P1;SDS_P2;PMS_P1;PMS_P2;Temp;Humidity;BMP_temperature;BMP_pressure;BME280_temperature;BME280_humidity;BME280_pressure;Samples;Min_cycle;Max_cycle;Signal;HPM_P1;HPM_P2
2024/01/19 00:00:43;;;;;;;6.47;0.03;;;0.50;99.90;;;;;;4999755;28;20470;-77
2024/01/19 00:03:09;;;;;;;2.78;0.00;;;0.40;99.90;;;;;;5000978;28;20030;-77
2024/01/19 00:05:34;;;;;;;3.42;0.20;;;0.60;99.90;;;;;;5000568;28;20081;-77
2024/01/19 00:08:00;;;;;;;2.30;0.35;;;0.70;99.90;;;;;;5000567;28;20094;-77
2024/01/19 00:10:26;;;;;;;3.55;0.10;;;0.70;99.90;;;;;;5000057;28;20041;-77
2024/01/19 00:12:51;;;;;;;2.40;0.75;;;0.60;99.90;;;;;;4999610;28;20038;-77
2024/01/19 00:15:17;;;;;;;8.95;1.65;;;0.70;99.90;;;;;;4999885;28;20064;-77
2024/01/19 00:17:43;;;;;;;3.80;0.22;;;0.70;99.90;;;;;;5000629;28;20109;-76
2024/01/19 00:20:10;;;;;;;1.08;0.15;;;0.70;99.90;;;;;;5001109;28;20052;-77
2024/01/19 00:22:36;;;;;;;2.50;0.10;;;0.60;99.90;;;;;;5001525;28;20018;-76
2024/01/19 00:25:02;;;;;;;1.88;0.13;;;;;;;;;;5000421;28;20038;-77
2024/01/19 00:27:29;;;;;;;1.75;0.00;;;0.40;99.90;;;;;;5002058;28;20029;-77
2024/01/19 00:29:55;;;;;;;0.88;0.20;;;0.40;99.90;;;;;;5001362;28;20030;-77
2024/01/19 00:32:21;;;;;;;1.08;0.00;;;0.30;99.90;;;;;;5001718;28;20026;-77
2024/01/19 00:34:46;;;;;;;0.77;0.00;;;1.30;99.90;;;;;;4999928;28;20046;-77
2024/01/19 00:37:13;;;;;;;1.95;0.00;;;0.30;99.90;;;;;;5001553;28;20394;-76
2024/01/19 00:39:38;;;;;;;1.25;0.15;;;0.30;99.90;;;;;;5000650;28;20076;-77
2024/01/19 00:42:04;;;;;;;0.68;0.00;;;0.20;99.90;;;;;;5001931;28;20492;-76
2024/01/19 00:44:30;;;;;;;1.73;0.00;;;0.20;99.90;;;;;;5000872;28;20034;-76
2024/01/19 00:46:55;;;;;;;2.60;0.00;;;0.10;99.90;;;;;;5000405;28;20482;-77
2024/01/19 00:49:21;;;;;;;1.40;0.00;;;0.10;99.90;;;;;;5000185;28;20113;-76
2024/01/19 00:51:46;;;;;;;0.25;0.00;;;0.10;99.90;;;;;;4998850;28;20030;-76
2024/01/19 00:54:14;;;;;;;0.70;0.00;;;0.10;99.90;;;;;;5000187;28;20437;-78
2024/01/19 00:56:39;;;;;;;0.10;0.00;;;0.20;99.90;;;;;;4999713;28;20026;-77
2024/01/19 00:59:05;;;;;;;1.15;0.52;;;;;;;;;;4999156;28;20057;-76
2024/01/19 01:01:31;;;;;;;3.50;0.00;;;0.30;99.90;;;;;;4999538;28;20033;-76
2024/01/19 01:03:58;;;;;;;1.77;0.05;;;0.40;99.90;;;;;;4999501;28;20025;-77
2024/01/19 01:06:24;;;;;;;0.32;0.00;;;0.40;99.90;;;;;;4999429;28;20027;-76
2024/01/19 01:08:50;;;;;;;1.27;0.00;;;0.40;99.90;;;;;;5000403;28;20033;-77
2024/01/19 01:11:16;;;;;;;1.95;0.00;;;0.40;99.90;;;;;;4998747;28;20398;-76
2024/01/19 01:13:41;;;;;;;0.40;0.00;;;0.40;99.90;;;;;;5000093;28;20022;-76
2024/01/19 01:16:07;;;;;;;0.60;0.00;;;0.30;99.90;;;;;;5001305;28;20501;-77
2024/01/19 01:18:32;;;;;;;0.00;0.00;;;0.30;99.90;;;;;;4999063;28;20057;-77
2024/01/19 01:20:58;;;;;;;0.22;0.00;;;0.30;99.90;;;;;;4999414;28;20022;-76
2024/01/19 01:23:24;;;;;;;1.25;0.10;;;0.30;99.90;;;;;;4999593;28;20502;-76
2024/01/19 01:25:50;;;;;;;0.47;0.00;;;;;;;;;;4998744;28;20054;-76
2024/01/19 01:28:16;;;;;;;2.22;0.00;;;0.20;99.90;;;;;;5000360;28;20026;-75
2024/01/19 01:30:42;;;;;;;0.25;0.00;;;0.20;99.90;;;;;;5000242;28;20429;-76
2024/01/19 01:33:07;;;;;;;0.52;0.00;;;1.70;99.90;;;;;;4998904;28;20094;-76
2024/01/19 01:35:35;;;;;;;4.07;0.00;;;0.10;99.90;;;;;;5000486;28;20022;-76
2024/01/19 01:38:01;;;;;;;0.90;0.00;;;0.30;99.90;;;;;;4999566;28;20022;-76
2024/01/19 01:40:27;;;;;;;2.75;0.00;;;0.00;99.90;;;;;;4998477;28;20486;-76
2024/01/19 01:43:00;;;;;;;0.30;0.00;;;0.00;99.90;;;;;;5000698;28;20074;-76
2024/01/19 01:45:26;;;;;;;0.68;0.00;;;-0.10;99.90;;;;;;4998286;28;20053;-77
2024/01/19 01:47:53;;;;;;;5.18;0.00;;;-0.10;99.90;;;;;;4998815;28;20029;-76
2024/01/19 01:50:18;;;;;;;0.30;0.00;;;-0.10;99.90;;;;;;4998144;28;20116;-77
2024/01/19 01:52:45;;;;;;;1.30;0.10;;;0.70;99.90;;;;;;4997085;28;20035;-77
2024/01/19 01:55:11;;;;;;;2.20;0.00;;;-0.10;99.90;;;;;;4999595;28;20007;-77
2024/01/19 01:57:36;;;;;;;2.40;0.15;;;-0.10;99.90;;;;;;4996909;28;20018;-77
2024/01/19 02:00:03;;;;;;;0.93;0.00;;;-0.10;99.90;;;;;;4998877;28;20026;-77
2024/01/19 02:02:28;;;;;;;1.08;0.00;;;-0.10;99.90;;;;;;4996688;28;20113;-77
2024/01/19 02:04:54;;;;;;;2.08;0.00;;;-0.10;99.90;;;;;;4997180;28;20057;-77
2024/01/19 02:07:20;;;;;;;0.93;0.00;;;;;;;;;;4997369;28;20076;-77
2024/01/19 02:09:45;;;;;;;2.47;0.03;;;0.00;99.90;;;;;;4996245;28;20030;-77
2024/01/19 02:12:12;;;;;;;0.57;0.30;;;0.00;99.90;;;;;;4997840;28;20037;-77
2024/01/19 02:14:37;;;;;;;4.65;0.20;;;0.20;99.90;;;;;;4996581;28;20022;-77
2024/01/19 02:17:03;;;;;;;3.10;0.00;;;0.20;99.90;;;;;;4998316;28;20112;-77
2024/01/19 02:19:29;;;;;;;3.85;0.00;;;0.30;99.90;;;;;;4997809;28;20023;-77
2024/01/19 02:21:54;;;;;;;2.92;0.10;;;0.30;99.90;;;;;;4998810;28;20018;-76
2024/01/19 02:24:21;;;;;;;2.75;0.10;;;0.30;99.90;;;;;;4998270;28;20018;-77
2024/01/19 02:26:46;;;;;;;0.82;0.00;;;0.30;99.90;;;;;;4996568;28;20031;-77
2024/01/19 02:29:13;;;;;;;1.45;0.05;;;;;;;;;;4997405;28;20081;-77
2024/01/19 02:31:39;;;;;;;0.85;0.00;;;0.30;99.90;;;;;;4996809;28;20034;-77
2024/01/19 02:34:05;;;;;;;2.83;0.10;;;0.20;99.90;;;;;;4996683;28;20026;-77
2024/01/19 02:36:30;;;;;;;4.53;0.17;;;0.10;99.90;;;;;;4997459;28;20072;-77
2024/01/19 02:38:57;;;;;;;5.60;0.13;;;;;;;;;;4998304;28;20022;-77
2024/01/19 02:41:22;;;;;;;3.30;0.30;;;-0.10;99.90;;;;;;4997014;28;20026;-77
2024/01/19 02:43:51;;;;;;;2.80;0.20;;;-0.10;99.90;;;;;;4998157;28;20033;-77
2024/01/19 02:46:21;;;;;;;1.02;0.00;;;;;;;;;;4998549;28;20069;-77
2024/01/19 02:48:47;;;;;;;2.75;0.00;;;-0.20;99.90;;;;;;5001028;28;20081;-77
2024/01/19 02:51:13;;;;;;;1.77;0.00;;;-0.30;99.90;;;;;;5000154;28;20030;-77
2024/01/19 02:53:38;;;;;;;3.95;0.50;;;-0.30;99.90;;;;;;5001046;28;20061;-77
2024/01/19 02:56:07;;;;;;;4.00;0.00;;;-0.30;99.90;;;;;;5002269;28;20030;-76
2024/01/19 02:58:32;;;;;;;1.05;0.00;;;0.90;99.90;;;;;;5002653;28;20018;-76
2024/01/19 03:00:59;;;;;;;10.55;0.38;;;-0.30;99.90;;;;;;5001285;28;20034;-76
2024/01/19 03:03:25;;;;;;;3.90;0.00;;;-0.30;99.90;;;;;;5002275;28;20037;-77
2024/01/19 03:05:50;;;;;;;3.30;0.00;;;-0.30;99.90;;;;;;5001395;28;20082;-76
2024/01/19 03:08:16;;;;;;;4.63;0.20;;;-0.30;99.90;;;;;;4999924;28;20073;-76
2024/01/19 03:10:42;;;;;;;5.32;0.00;;;1.10;99.90;;;;;;5001856;28;20105;-75
2024/01/19 03:13:07;;;;;;;3.10;0.00;;;-0.30;99.90;;;;;;5002008;28;20529;-76
2024/01/19 03:15:33;;;;;;;5.10;0.03;;;-0.30;99.90;;;;;;5001608;28;20395;-76
2024/01/19 03:17:58;;;;;;;4.68;0.52;;;-0.30;99.90;;;;;;5001082;28;20032;-76
2024/01/19 03:20:24;;;;;;;3.10;0.00;;;-0.30;99.90;;;;;;5001910;28;20033;-75
2024/01/19 03:22:49;;;;;;;4.88;0.28;;;-0.30;99.90;;;;;;5001499;28;20031;-76
2024/01/19 03:25:15;;;;;;;1.65;0.20;;;-0.30;99.90;;;;;;5001456;28;20390;-76
2024/01/19 03:27:41;;;;;;;5.72;0.08;;;-0.30;99.90;;;;;;5001194;28;20027;-77
2024/01/19 03:30:07;;;;;;;3.33;0.20;;;-0.30;99.90;;;;;;5001194;28;20426;-76
2024/01/19 03:32:32;;;;;;;1.42;0.13;;;-0.30;99.90;;;;;;5001033;28;20057;-77
2024/01/19 03:34:58;;;;;;;2.45;0.25;;;-0.30;99.90;;;;;;5000689;28;20052;-76
2024/01/19 03:37:23;;;;;;;2.70;0.10;;;-0.40;99.90;;;;;;5000373;28;20026;-77
2024/01/19 03:39:49;;;;;;;9.68;0.10;;;-0.40;99.90;;;;;;5002754;28;20434;-76
2024/01/19 03:42:15;;;;;;;2.22;0.03;;;-0.40;99.90;;;;;;5002167;28;20471;-76
2024/01/19 03:44:41;;;;;;;3.42;0.10;;;-0.40;99.90;;;;;;5001546;28;20225;-77
2024/01/19 03:47:07;;;;;;;1.85;0.10;;;-0.40;99.90;;;;;;5002563;28;20018;-76
2024/01/19 03:49:32;;;;;;;7.00;0.10;;;-0.30;99.90;;;;;;5000330;28;20558;-76
2024/01/19 03:52:03;;;;;;;6.70;0.20;;;-0.30;99.90;;;;;;5002536;28;20045;-76
2024/01/19 03:54:30;;;;;;;5.05;0.45;;;-0.30;99.90;;;;;;5001210;28;20401;-76
2024/01/19 03:56:58;;;;;;;2.85;0.30;;;-0.10;99.90;;;;;;4999331;28;20406;-77
2024/01/19 03:59:24;;;;;;;6.78;0.52;;;0.00;99.90;;;;;;4999568;28;20022;-76
2024/01/19 04:01:50;;;;;;;4.82;0.22;;;0.10;99.90;;;;;;5002057;28;20018;-76
2024/01/19 04:04:16;;;;;;;6.70;0.63;;;0.30;99.90;;;;;;5001043;28;20018;-76
2024/01/19 04:06:42;;;;;;;2.58;0.20;;;0.30;99.90;;;;;;4999797;28;20022;-77
2024/01/19 04:09:08;;;;;;;10.18;0.10;;;0.30;99.90;;;;;;4999080;28;20120;-76
2024/01/19 04:11:34;;;;;;;3.63;0.17;;;0.30;99.90;;;;;;5000294;28;20572;-76
2024/01/19 04:14:00;;;;;;;3.33;0.10;;;0.30;99.90;;;;;;5001003;28;20028;-76
2024/01/19 04:16:26;;;;;;;2.10;0.08;;;0.40;99.90;;;;;;5001208;28;20081;-75
2024/01/19 04:18:51;;;;;;;2.58;0.13;;;0.40;99.90;;;;;;5001369;28;20018;-76
2024/01/19 04:21:17;;;;;;;2.10;0.17;;;0.40;99.90;;;;;;5000289;28;20023;-77
2024/01/19 04:23:44;;;;;;;7.05;0.50;;;0.60;99.90;;;;;;5001251;28;20455;-76
2024/01/19 04:26:10;;;;;;;3.05;0.10;;;0.60;99.90;;;;;;4999126;28;20113;-75
2024/01/19 04:28:36;;;;;;;3.10;0.40;;;1.00;99.90;;;;;;5000565;28;20031;-75
2024/01/19 04:31:02;;;;;;;2.30;0.00;;;0.70;99.90;;;;;;5000961;28;20146;-75
2024/01/19 04:33:27;;;;;;;1.75;0.00;;;0.70;99.90;;;;;;5000737;28;20030;-75
2024/01/19 04:35:53;;;;;;;0.70;0.00;;;0.70;99.90;;;;;;4999364;28;20026;-75
2024/01/19 04:38:19;;;;;;;0.70;0.00;;;0.70;99.90;;;;;;5000725;28;20026;-75
2024/01/19 04:40:44;;;;;;;2.78;0.30;;;0.60;99.90;;;;;;5000280;28;20021;-75
2024/01/19 04:43:13;;;;;;;0.15;0.00;;;0.60;99.90;;;;;;4999263;28;20471;-75
2024/01/19 04:45:38;;;;;;;3.13;0.05;;;0.50;99.90;;;;;;5000116;28;20062;-76
2024/01/19 04:48:04;;;;;;;0.03;0.00;;;0.50;99.90;;;;;;5001346;28;20506;-76
2024/01/19 04:50:30;;;;;;;3.75;0.20;;;0.50;99.90;;;;;;5000999;28;20030;-76
2024/01/19 04:52:56;;;;;;;2.60;0.00;;;0.50;99.90;;;;;;4999632;28;20478;-77
2024/01/19 04:55:21;;;;;;;5.05;0.88;;;0.30;99.90;;;;;;4999254;28;20054;-76
2024/01/19 04:57:47;;;;;;;2.60;0.00;;;0.20;99.90;;;;;;4999350;28;20078;-76
2024/01/19 05:00:14;;;;;;;4.82;0.00;;;0.20;99.90;;;;;;4998132;28;20125;-76
2024/01/19 05:02:39;;;;;;;1.02;0.00;;;0.10;99.90;;;;;;4997865;28;20015;-76
2024/01/19 05:05:05;;;;;;;2.42;0.00;;;0.00;99.90;;;;;;4999572;28;20056;-76
2024/01/19 05:07:31;;;;;;;3.38;0.22;;;0.00;99.90;;;;;;5000185;28;20037;-76
2024/01/19 05:09:57;;;;;;;1.95;0.00;;;-0.20;99.90;;;;;;4999106;28;20386;-76
2024/01/19 05:12:23;;;;;;;4.57;0.00;;;-0.20;99.90;;;;;;4998938;28;20085;-76
2024/01/19 05:14:49;;;;;;;2.15;0.00;;;-0.30;99.90;;;;;;4998889;28;20046;-75
2024/01/19 05:17:14;;;;;;;0.28;0.00;;;-0.40;99.90;;;;;;4999207;28;20062;-77
2024/01/19 05:19:40;;;;;;;1.77;0.00;;;-0.40;99.90;;;;;;4998509;28;20025;-77
2024/01/19 05:22:06;;;;;;;1.02;0.00;;;-0.50;99.90;;;;;;4999801;28;20031;-77
2024/01/19 05:24:32;;;;;;;1.95;0.20;;;-0.50;99.90;;;;;;4999130;28;20018;-77
2024/01/19 05:26:57;;;;;;;0.57;0.00;;;0.80;99.90;;;;;;4998967;28;20058;-77
2024/01/19 05:29:23;;;;;;;3.35;0.20;;;-0.70;99.90;;;;;;4999298;28;20517;-77
2024/01/19 05:31:49;;;;;;;1.55;0.00;;;-0.70;99.90;;;;;;4998183;28;20117;-77
2024/01/19 05:34:15;;;;;;;4.50;0.25;;;-0.80;99.90;;;;;;4998965;28;20037;-77
2024/01/19 05:36:41;;;;;;;3.30;0.00;;;-0.90;99.90;;;;;;4997889;28;20030;-77
2024/01/19 05:39:07;;;;;;;2.58;0.03;;;-0.90;99.90;;;;;;4998182;28;20482;-77
2024/01/19 05:41:33;;;;;;;1.25;0.80;;;-0.90;99.90;;;;;;4999363;28;20021;-77
2024/01/19 05:43:59;;;;;;;0.32;0.00;;;-1.00;99.90;;;;;;4999253;28;20378;-77
2024/01/19 05:46:25;;;;;;;0.57;0.00;;;-1.10;99.90;;;;;;4999013;28;20034;-77
2024/01/19 05:48:50;;;;;;;0.45;0.00;;;-1.10;99.90;;;;;;4998441;28;20434;-77
2024/01/19 05:51:17;;;;;;;1.27;0.00;;;-1.10;99.90;;;;;;4998510;28;20026;-77
2024/01/19 05:53:44;;;;;;;3.22;0.00;;;;;;;;;;4997976;28;20062;-77
2024/01/19 05:56:09;;;;;;;0.85;0.10;;;-1.10;99.90;;;;;;4998888;28;20108;-77
2024/01/19 05:58:35;;;;;;;0.38;0.10;;;-1.10;99.90;;;;;;4996024;28;20072;-77
2024/01/19 06:01:05;;;;;;;1.15;0.00;;;-1.10;99.90;;;;;;4980988;28;20126;-77
2024/01/19 06:03:35;;;;;;;1.02;0.05;;;-1.20;99.90;;;;;;4997365;28;20022;-77
2024/01/19 06:06:02;;;;;;;1.33;0.00;;;-1.10;99.90;;;;;;4997668;28;20490;-77
2024/01/19 06:08:28;;;;;;;0.63;0.00;;;-1.20;99.90;;;;;;4998372;28;20509;-77
2024/01/19 06:10:54;;;;;;;1.38;0.00;;;-1.10;99.90;;;;;;4998066;28;20065;-77
2024/01/19 06:13:20;;;;;;;2.20;0.03;;;-1.20;99.90;;;;;;4996389;28;20042;-77
2024/01/19 06:15:45;;;;;;;1.77;0.00;;;-1.30;99.90;;;;;;4997437;28;20478;-77
2024/01/19 06:18:11;;;;;;;2.65;0.00;;;-1.40;99.90;;;;;;4997543;28;20486;-77
2024/01/19 06:20:43;;;;;;;5.05;0.43;;;-1.40;99.90;;;;;;4996925;28;20134;-76
2024/01/19 06:23:09;;;;;;;2.05;0.10;;;-1.50;99.90;;;;;;4997892;28;20486;-76
2024/01/19 06:25:35;;;;;;;4.50;0.00;;;-1.60;99.90;;;;;;4996662;28;20073;-76
2024/01/19 06:28:02;;;;;;;5.30;0.20;;;-1.60;99.90;;;;;;4997037;28;20030;-77
2024/01/19 06:30:27;;;;;;;3.17;0.20;;;-1.60;99.90;;;;;;4997165;28;20018;-77
2024/01/19 06:32:59;;;;;;;0.65;0.00;;;-1.60;99.90;;;;;;4997566;28;20023;-77
2024/01/19 06:35:25;;;;;;;2.90;0.10;;;-1.60;99.90;;;;;;4995862;28;20022;-75
2024/01/19 06:37:50;;;;;;;2.60;0.03;;;-1.50;99.90;;;;;;4996409;28;20029;-75
2024/01/19 06:40:16;;;;;;;3.47;0.10;;;-1.40;99.90;;;;;;4996603;28;20029;-75
2024/01/19 06:42:45;;;;;;;4.72;0.08;;;-1.40;99.90;;;;;;4995706;28;20026;-75
2024/01/19 06:45:14;;;;;;;4.40;0.00;;;-1.40;99.90;;;;;;4997303;28;20069;-75
2024/01/19 06:47:39;;;;;;;0.40;0.00;;;-1.30;99.90;;;;;;4998998;28;20425;-75
2024/01/19 06:50:05;;;;;;;1.52;0.00;;;-1.30;99.90;;;;;;4998339;28;20030;-75
2024/01/19 06:52:31;;;;;;;3.88;0.10;;;-1.40;99.90;;;;;;4998063;28;20038;-75
2024/01/19 06:54:57;;;;;;;5.65;0.55;;;-1.40;99.90;;;;;;4996485;28;20023;-75
2024/01/19 06:57:22;;;;;;;2.60;0.10;;;-1.40;99.90;;;;;;4997910;28;20050;-76
2024/01/19 06:59:48;;;;;;;7.80;0.30;;;-1.40;99.90;;;;;;4997822;28;20014;-75
2024/01/19 07:02:13;;;;;;;3.13;0.45;;;-1.50;99.90;;;;;;4996718;28;20109;-75
2024/01/19 07:04:39;;;;;;;6.82;0.30;;;-1.50;99.90;;;;;;4997829;28;20019;-75
2024/01/19 07:07:04;;;;;;;4.40;0.30;;;-1.50;99.90;;;;;;4995329;28;20077;-75
2024/01/19 07:09:30;;;;;;;4.50;0.47;;;-1.50;99.90;;;;;;4996914;28;20034;-75
2024/01/19 07:11:56;;;;;;;4.82;0.43;;;-1.40;99.90;;;;;;4996659;28;20034;-75
2024/01/19 07:14:22;;;;;;;4.00;0.10;;;-1.40;99.90;;;;;;4996092;28;20061;-75
2024/01/19 07:16:47;;;;;;;5.13;0.03;;;-1.40;99.90;;;;;;4996495;28;20500;-75
2024/01/19 07:19:13;;;;;;;2.50;0.13;;;-1.30;99.90;;;;;;4996207;28;20109;-75
2024/01/19 07:21:39;;;;;;;3.65;0.40;;;-1.30;99.90;;;;;;4997456;28;20106;-75
2024/01/19 07:24:07;;;;;;;4.63;0.30;;;-1.30;99.90;;;;;;4997252;28;20367;-75
2024/01/19 07:26:33;;;;;;;6.70;0.30;;;-1.40;99.90;;;;;;4997987;28;20482;-75
2024/01/19 07:28:59;;;;;;;1.95;0.30;;;-1.40;99.90;;;;;;4995629;28;20041;-74
2024/01/19 07:31:25;;;;;;;3.40;0.75;;;-1.30;99.90;;;;;;4997267;28;20019;-75
2024/01/19 07:33:51;;;;;;;5.85;0.40;;;-1.40;99.90;;;;;;5001227;28;20037;-74
2024/01/19 07:36:17;;;;;;;5.50;0.60;;;-1.40;99.90;;;;;;5000285;28;20466;-74
2024/01/19 07:38:42;;;;;;;11.20;0.55;;;-1.30;99.90;;;;;;5000352;28;20057;-74
2024/01/19 07:41:08;;;;;;;4.65;0.43;;;-1.30;99.90;;;;;;5000314;28;20076;-74
2024/01/19 07:43:33;;;;;;;3.38;0.45;;;-1.30;99.90;;;;;;5000655;28;20064;-74
2024/01/19 07:45:59;;;;;;;7.18;0.60;;;-1.10;99.90;;;;;;4999510;28;20087;-75
2024/01/19 07:48:25;;;;;;;4.72;0.85;;;-1.10;99.90;;;;;;5001047;28;20030;-74
2024/01/19 07:50:51;;;;;;;6.82;0.68;;;-1.00;99.90;;;;;;5000434;28;20109;-74
2024/01/19 07:53:16;;;;;;;3.30;0.80;;;-1.00;99.90;;;;;;5002568;28;20022;-74
2024/01/19 07:55:42;;;;;;;10.32;1.10;;;-0.80;99.90;;;;;;4998889;28;20057;-74
2024/01/19 07:58:07;;;;;;;4.93;0.80;;;-0.80;99.90;;;;;;5000519;28;20023;-74
2024/01/19 08:00:51;;;;;;;2.88;1.10;;;;;;;;;;5000967;28;20030;-74
2024/01/19 08:03:18;;;;;;;5.47;0.60;;;-0.60;99.90;;;;;;4998662;28;20022;-75
2024/01/19 08:05:43;;;;;;;4.07;0.80;;;-0.70;99.90;;;;;;5000682;28;20030;-74
2024/01/19 08:08:09;;;;;;;7.43;1.20;;;-0.60;99.90;;;;;;5000964;28;20083;-75
2024/01/19 08:10:36;;;;;;;11.05;0.77;;;-0.70;99.90;;;;;;4999207;28;20636;-75
2024/01/19 08:13:02;;;;;;;4.10;0.80;;;-0.70;99.90;;;;;;4999397;28;20030;-74
2024/01/19 08:15:28;;;;;;;5.60;0.70;;;-0.70;99.90;;;;;;5000561;28;20027;-74
2024/01/19 08:17:54;;;;;;;4.30;1.17;;;;;;;;;;4999272;28;20019;-75
2024/01/19 08:20:21;;;;;;;10.30;0.98;;;-0.80;99.90;;;;;;4998967;28;20034;-75
2024/01/19 08:22:48;;;;;;;12.32;1.55;;;-0.70;99.90;;;;;;4983767;28;20113;-76
2024/01/19 08:25:14;;;;;;;5.15;0.85;;;-0.60;99.90;;;;;;4999185;28;20027;-75
2024/01/19 08:27:41;;;;;;;5.95;1.40;;;-0.60;99.90;;;;;;4998828;28;20085;-75
2024/01/19 08:30:07;;;;;;;10.30;1.33;;;-0.50;99.90;;;;;;4999840;28;20030;-75
2024/01/19 08:32:34;;;;;;;3.13;0.77;;;-0.40;99.90;;;;;;5001573;28;20029;-76
2024/01/19 08:35:08;;;;;;;5.30;1.20;;;-0.40;99.90;;;;;;5001358;28;20105;-76
2024/01/19 08:37:38;;;;;;;4.15;1.10;;;-0.40;99.90;;;;;;5001029;28;20419;-74
2024/01/19 08:40:09;;;;;;;7.65;1.67;;;-0.10;99.90;;;;;;5001079;28;20076;-75
2024/01/19 08:42:35;;;;;;;8.43;1.90;;;-0.10;99.90;;;;;;4998407;28;20069;-74
2024/01/19 08:45:02;;;;;;;7.10;1.98;;;;;;;;;;4996620;28;20037;-74
2024/01/19 08:47:27;;;;;;;8.00;0.82;;;0.10;99.90;;;;;;5000539;28;20085;-74
2024/01/19 08:49:56;;;;;;;4.45;1.33;;;0.10;99.90;;;;;;5000074;28;20026;-74
2024/01/19 08:52:22;;;;;;;7.38;1.38;;;0.10;99.90;;;;;;4998707;28;20022;-75
2024/01/19 08:54:47;;;;;;;5.45;1.42;;;0.20;99.90;;;;;;5000173;28;20097;-78
2024/01/19 08:57:13;;;;;;;7.68;1.13;;;0.30;99.90;;;;;;4999114;28;20014;-76
2024/01/19 08:59:39;;;;;;;5.43;1.20;;;0.30;99.90;;;;;;5000453;28;20023;-77
2024/01/19 09:02:05;;;;;;;8.07;1.25;;;0.40;99.90;;;;;;5000453;28;20053;-77
2024/01/19 09:04:33;;;;;;;4.10;0.80;;;0.50;99.90;;;;;;5000289;28;20436;-75
2024/01/19 09:06:59;;;;;;;15.60;1.40;;;0.60;99.90;;;;;;5000435;28;20085;-77
2024/01/19 09:09:25;;;;;;;8.13;1.08;;;0.60;99.90;;;;;;5000464;28;20506;-77
2024/01/19 09:11:50;;;;;;;5.13;0.60;;;0.70;99.90;;;;;;4998965;28;20062;-77
2024/01/19 09:14:16;;;;;;;1.80;0.60;;;;;;;;;;4999759;28;20536;-77
2024/01/19 09:16:43;;;;;;;6.60;0.90;;;0.80;99.90;;;;;;5002011;28;20034;-77
2024/01/19 09:19:09;;;;;;;13.82;3.35;;;0.80;99.90;;;;;;5001505;28;20026;-76
2024/01/19 09:21:35;;;;;;;3.88;0.40;;;1.00;99.90;;;;;;5000829;28;20393;-76
2024/01/19 09:24:01;;;;;;;1.42;0.40;;;1.10;99.90;;;;;;4999657;28;20037;-76
2024/01/19 09:26:27;;;;;;;6.40;0.70;;;1.20;99.90;;;;;;5001254;28;20029;-76
2024/01/19 09:28:53;;;;;;;2.70;0.40;;;1.10;99.90;;;;;;5001350;28;20101;-76
2024/01/19 09:31:20;;;;;;;4.05;0.70;;;1.20;99.90;;;;;;5001513;28;20061;-76
2024/01/19 09:33:46;;;;;;;4.97;0.80;;;1.40;99.90;;;;;;4999783;28;20034;-76
2024/01/19 09:36:11;;;;;;;6.68;0.70;;;1.50;99.90;;;;;;5001142;28;20036;-76
2024/01/19 09:38:37;;;;;;;7.22;1.10;;;1.50;99.90;;;;;;4999617;28;20022;-77
2024/01/19 09:41:14;;;;;;;7.85;0.93;;;1.50;99.90;;;;;;4998540;28;20057;-77
2024/01/19 09:43:43;;;;;;;6.28;0.60;;;1.50;99.90;;;;;;4999881;28;20398;-77
2024/01/19 09:46:13;;;;;;;;;;;1.60;99.90;;;;;;4999795;28;20125;-76
2024/01/19 09:48:50;;;;;;;3.47;1.25;;;1.70;99.90;;;;;;5000293;28;19919;-76
2024/01/19 09:51:16;;;;;;;3.38;0.50;;;1.80;99.90;;;;;;5000577;28;20017;-76
2024/01/19 09:53:53;;;;;;;5.05;1.13;;;1.80;99.90;;;;;;5000644;28;20486;-76
2024/01/19 09:56:18;;;;;;;9.77;1.08;;;1.80;99.90;;;;;;5001027;28;20068;-76
2024/01/19 09:58:45;;;;;;;6.68;0.80;;;2.90;99.90;;;;;;5000073;28;20011;-76
2024/01/19 10:01:11;;;;;;;4.00;0.52;;;1.80;99.90;;;;;;5000034;28;20536;-76
2024/01/19 10:03:37;;;;;;;8.80;1.17;;;1.90;99.90;;;;;;5000511;28;20019;-76
2024/01/19 10:06:03;;;;;;;9.10;0.75;;;2.00;99.90;;;;;;5000866;28;20030;-77
2024/01/19 10:08:29;;;;;;;3.72;0.43;;;2.00;99.90;;;;;;4999033;28;20049;-77
2024/01/19 10:11:01;;;;;;;3.22;0.55;;;2.40;99.90;;;;;;4998588;28;20030;-78
2024/01/19 10:13:28;;;;;;;7.07;0.70;;;2.20;99.90;;;;;;4996798;28;20034;-77
2024/01/19 10:15:57;;;;;;;2.80;0.50;;;2.30;99.90;;;;;;4997009;28;20026;-77
2024/01/19 10:18:23;;;;;;;5.93;0.73;;;2.60;99.90;;;;;;4998763;28;20057;-77
2024/01/19 10:20:51;;;;;;;8.35;1.48;;;6.00;99.90;;;;;;4998847;28;20061;-77
2024/01/19 10:23:24;;;;;;;12.13;0.95;;;2.80;99.90;;;;;;4998704;28;20386;-77
2024/01/19 10:25:50;;;;;;;3.35;0.47;;;3.10;99.90;;;;;;4999510;28;20486;-77
2024/01/19 10:28:30;;;;;;;5.40;0.68;;;3.20;99.90;;;;;;5000232;28;20018;-77
2024/01/19 10:31:16;;;;;;;6.35;0.73;;;3.20;99.90;;;;;;5000626;28;20010;-76
2024/01/19 10:33:52;;;;;;;2.85;0.45;;;3.20;99.90;;;;;;4999844;28;20383;-77
2024/01/19 10:36:18;;;;;;;3.65;0.30;;;3.20;99.90;;;;;;5000439;28;20030;-77
2024/01/19 10:38:44;;;;;;;5.68;0.68;;;3.10;99.90;;;;;;4999826;28;20026;-77
2024/01/19 10:41:17;;;;;;;9.80;0.63;;;3.00;99.90;;;;;;5000498;28;20027;-77
2024/01/19 10:43:42;;;;;;;7.28;1.45;;;2.90;99.90;;;;;;5000283;28;20028;-77
2024/01/19 10:46:23;;;;;;;7.57;1.30;;;3.00;99.90;;;;;;4998148;28;20117;-77
2024/01/19 10:48:50;;;;;;;6.57;0.75;;;3.00;99.90;;;;;;4998237;28;20109;-77
2024/01/19 10:51:19;;;;;;;5.43;1.50;;;3.10;99.90;;;;;;4998763;28;20486;-77
2024/01/19 10:53:48;;;;;;;9.88;1.58;;;3.20;99.90;;;;;;4998901;28;20019;-77
2024/01/19 10:56:18;;;;;;;5.25;0.77;;;3.40;99.90;;;;;;4998688;28;20034;-77
2024/01/19 10:58:44;;;;;;;5.45;0.98;;;3.50;99.90;;;;;;4998933;28;20069;-77
2024/01/19 11:01:17;;;;;;;3.03;0.63;;;3.40;99.90;;;;;;4998863;28;20394;-77
2024/01/19 11:03:44;;;;;;;8.35;1.08;;;3.60;99.90;;;;;;5000182;28;20386;-77
2024/01/19 11:06:10;;;;;;;6.97;0.85;;;3.70;99.90;;;;;;5000580;28;20029;-77
2024/01/19 11:08:37;;;;;;;5.72;2.08;;;5.90;99.90;;;;;;5004624;28;20022;-78
2024/01/19 11:11:09;;;;;;;9.35;0.90;;;3.70;99.90;;;;;;5002044;28;20491;-77
2024/01/19 11:13:38;;;;;;;5.65;0.65;;;3.70;99.90;;;;;;5001400;28;20026;-78
2024/01/19 11:16:13;;;;;;;2.33;0.43;;;3.80;99.90;;;;;;5002890;28;20030;-77
2024/01/19 11:18:39;;;;;;;4.90;0.98;;;3.80;99.90;;;;;;5003127;28;20054;-78
2024/01/19 11:21:06;;;;;;;5.55;1.23;;;3.90;99.90;;;;;;5002998;28;20548;-78
2024/01/19 11:23:33;;;;;;;8.73;1.13;;;3.90;99.90;;;;;;5001885;28;20084;-78
2024/01/19 11:26:09;;;;;;;4.43;0.50;;;4.00;99.90;;;;;;5001641;28;20053;-78
2024/01/19 11:28:34;;;;;;;4.80;0.50;;;4.00;99.90;;;;;;5001462;28;20026;-78
2024/01/19 11:31:22;;;;;;;8.98;1.48;;;4.10;99.90;;;;;;5001155;28;20032;-78
2024/01/19 11:33:48;;;;;;;10.95;0.50;;;4.10;99.90;;;;;;5000525;28;20030;-78
2024/01/19 11:36:33;;;;;;;5.20;0.70;;;4.10;99.90;;;;;;5001396;28;20027;-78
2024/01/19 11:38:59;;;;;;;6.45;0.77;;;4.10;99.90;;;;;;5003401;28;20022;-78
2024/01/19 11:41:43;;;;;;;6.22;1.10;;;4.40;99.90;;;;;;5002540;28;20098;-78
2024/01/19 11:44:12;;;;;;;11.43;1.17;;;4.40;99.90;;;;;;5002723;28;20021;-78
2024/01/19 11:46:50;;;;;;;9.85;1.05;;;4.60;99.90;;;;;;5001347;28;20110;-78
2024/01/19 11:49:48;;;;;;;5.40;1.15;;;4.60;99.90;;;;;;5000527;28;20026;-78
2024/01/19 11:52:19;;;;;;;6.55;0.55;;;4.60;99.90;;;;;;4979868;28;20394;-78
2024/01/19 11:54:45;;;;;;;5.70;0.63;;;4.80;99.90;;;;;;5002800;28;20034;-78
2024/01/19 11:57:24;;;;;;;7.07;0.65;;;6.30;99.90;;;;;;5001614;28;20038;-78
2024/01/19 11:59:51;;;;;;;5.95;1.08;;;5.00;99.90;;;;;;5001927;28;20033;-78
2024/01/19 12:02:27;;;;;;;6.22;0.95;;;6.10;99.90;;;;;;5001435;28;20038;-78
2024/01/19 12:04:53;;;;;;;8.07;1.60;;;5.00;99.90;;;;;;4999203;28;20026;-78
2024/01/19 12:07:22;;;;;;;15.88;0.77;;;5.10;99.90;;;;;;4999077;28;20042;-78
2024/01/19 12:10:09;;;;;;;10.70;1.08;;;5.30;99.90;;;;;;5000131;28;20033;-78
2024/01/19 12:12:36;;;;;;;3.05;0.70;;;5.30;99.90;;;;;;5000541;28;20525;-78
2024/01/19 12:15:04;;;;;;;8.30;1.00;;;5.50;99.90;;;;;;4999620;28;20033;-79
2024/01/19 12:17:30;;;;;;;5.35;0.77;;;5.50;99.90;;;;;;4999931;28;20120;-79
2024/01/19 12:19:56;;;;;;;6.90;0.82;;;5.60;99.90;;;;;;4999041;28;20027;-79
2024/01/19 12:22:22;;;;;;;5.55;0.50;;;5.50;99.90;;;;;;4997721;28;20015;-78
2024/01/19 12:24:48;;;;;;;4.78;0.30;;;5.60;99.90;;;;;;4997892;28;20028;-78
2024/01/19 12:27:17;;;;;;;6.10;0.80;;;5.60;99.90;;;;;;4999496;28;20081;-79
2024/01/19 12:29:44;;;;;;;8.18;0.52;;;5.90;99.90;;;;;;5000875;28;20037;-79
2024/01/19 12:32:14;;;;;;;8.10;0.95;;;5.80;99.90;;;;;;4997638;28;20490;-78
2024/01/19 12:34:40;;;;;;;6.03;0.60;;;5.80;99.90;;;;;;4998815;28;20053;-78
2024/01/19 12:37:06;;;;;;;8.77;0.95;;;5.90;99.90;;;;;;4997342;28;20026;-79
2024/01/19 12:39:32;;;;;;;8.48;0.90;;;5.90;99.90;;;;;;4997674;28;20045;-79
2024/01/19 12:42:03;;;;;;;8.68;1.40;;;5.90;99.90;;;;;;4998511;28;20027;-79
2024/01/19 12:44:28;;;;;;;13.15;0.55;;;5.90;99.90;;;;;;4999028;28;20026;-79
2024/01/19 12:46:58;;;;;;;10.23;1.48;;;6.00;99.90;;;;;;5000175;28;20517;-79
2024/01/19 12:49:24;;;;;;;4.68;0.98;;;6.10;99.90;;;;;;5000850;28;20030;-79
2024/01/19 12:51:50;;;;;;;4.47;1.15;;;6.10;99.90;;;;;;5000591;28;20026;-79
2024/01/19 12:54:20;;;;;;;8.88;1.00;;;6.30;99.90;;;;;;4998862;28;20027;-79